METAR Data
IDs: Format: Raw Decoded Include TAF

Data at: 1124 UTC 16 Feb 2019

PANW 161104Z AUTO 32003KT 1 1/2SM -SN BR BKN008 OVC015 M03/M03 A2997 RMK AO2 CIG 006V014 P0000 FZRANO
PANW 161056Z AUTO 00000KT 2SM -SN BR BKN006 OVC014 M03/M03 A2997 RMK AO2 SLP166 P0001 T10331033 FZRANO
PANW 161054Z AUTO 00000KT 2SM -SN BR BKN006 OVC014 M03/M03 A2997 RMK AO2 P0001 FZRANO
PANW 161051Z AUTO 00000KT 1 3/4SM -SN BR SCT006 OVC014 M03/M03 A2997 RMK AO2 P0001 FZRANO
PANW 161024Z AUTO 09004KT 1 3/4SM -SN BR BKN014 OVC021 M03/M04 A2995 RMK AO2 P0000 FZRANO
PANW 161012Z AUTO 00000KT 2SM -SN BR FEW014 BKN021 OVC030 M03/M04 A2996 RMK AO2 P0000 FZRANO
PANW 161005Z AUTO 00000KT 1 1/4SM -SN BR FEW007 BKN014 OVC021 M03/M04 A2995 RMK AO2 P0000 FZRANO
PANW 160956Z AUTO 00000KT 2SM -SN BR SCT007 BKN014 OVC022 M03/M04 A2995 RMK AO2 SLP160 P0001 T10331039 FZRANO
PANW 160930Z AUTO 00000KT 1 1/2SM -SN BR OVC007 M03/M04 A2994 RMK AO2 P0001 FZRANO
PANW 160916Z AUTO 10003KT 2SM -SN BR BKN007 OVC012 M03/M04 A2993 RMK AO2 P0000 FZRANO
PANW 160856Z AUTO 11004KT 2SM -SN BR OVC012 M03/M04 A2993 RMK AO2 SLP151 P0002 60006 T10331039 410331150 53005 FZRANO
PANW 160830Z AUTO 10005KT 2SM -SN BR FEW008 OVC013 M04/M04 A2992 RMK AO2 P0001 FZRANO
PANW 160823Z AUTO 09005KT 1 3/4SM -SN BR OVC013 M04/M04 A2992 RMK AO2 P0001 FZRANO
PANW 160756Z AUTO 09006KT 1 1/4SM -SN BR OVC012 M04/M04 A2991 RMK AO2 SLP146 P0003 T10391044 FZRANO
PANW 160719Z AUTO 09008KT 1 3/4SM -SN BR FEW008 OVC012 M04/M04 A2991 RMK AO2 P0001 FZRANO
PANW 160709Z AUTO 09007KT 2SM -SN BR OVC014 M04/M04 A2991 RMK AO2 P0000 FZRANO
PANW 160704Z AUTO 09007KT 1 3/4SM -SN BR FEW010 OVC016 M04/M04 A2991 RMK AO2 P0000 FZRANO
PANW 160656Z AUTO 09007KT 1SM -SN BR SCT010 OVC016 M04/M05 A2990 RMK AO2 SLP144 P0001 T10391050 FZRANO
PANW 160654Z AUTO 09008KT 1 1/4SM -SN BR BKN012 OVC016 M04/M05 A2990 RMK AO2 P0001 FZRANO
PANW 160626Z AUTO 08007KT 1 3/4SM -SN BR SCT011 OVC016 M04/M05 A2990 RMK AO2 P0000 FZRANO
PANW 160607Z AUTO 08008KT 2SM -SN BR OVC018 M04/M06 A2990 RMK AO2 P0000 FZRANO
PANW 160556Z AUTO 08007KT 3SM -SN BR OVC022 M04/M06 A2991 RMK AO2 SLP146 P0000 60000 T10391056 11039 21056 51005 FZRANO
PANW 160456Z AUTO 06008KT 8SM -SN OVC022 M04/M07 A2991 RMK AO2 SLP145 P0000 T10391067 FZRANO
PANW 160356Z AUTO 06006KT 9SM -SN BKN024 OVC028 M04/M07 A2991 RMK AO2 SNB47 SLP146 P0000 T10391067 FZRANO
PANW 160342Z AUTO 08005KT 10SM BKN024 OVC035 M04/M07 A2991 RMK AO2 FZRANO
PANW 160256Z AUTO 08007KT 10SM FEW055 SCT075 OVC100 M04/M07 A2990 RMK AO2 SLP142 T10441072 58012 FZRANO
PANW 160156Z AUTO 07004KT 10SM BKN046 OVC120 M05/M08 A2993 RMK AO2 SLP151 T10501083 FZRANO
PANW 160056Z AUTO 09010G15KT 10SM OVC100 M05/M09 A2992 RMK AO2 SLP149 T10501089 FZRANO
PANW 152356Z AUTO 08009KT 10SM OVC110 M05/M09 A2993 RMK AO2 SLP155 T10501094 11050 21150 58015 FZRANO
PANW 152256Z AUTO 04010KT 10SM FEW120 M07/M10 A2996 RMK AO2 SLP163 T10721100 FZRANO
PANW 152156Z AUTO 03010KT 10SM CLR M09/M12 A2996 RMK AO2 SLP163 T10891117 FZRANO
PANW 152056Z AUTO 02011KT 10SM CLR M11/M13 A2998 RMK AO2 SLP170 T11061133 58020 FZRANO
PANW 151956Z AUTO 01006KT 10SM CLR M12/M14 A3002 RMK AO2 SLP184 T11171144 FZRANO
PANW 151856Z AUTO 01008KT 10SM CLR M14/M16 A3003 RMK AO2 SLP187 T11391161 FZRANO
PANW 151756Z AUTO 36007KT 10SM CLR M15/M17 A3004 RMK AO2 SLP191 T11501167 11128 21150 55010 FZRANO
PANW 151656Z AUTO 36007KT 10SM CLR M14/M17 A3004 RMK AO2 SLP190 T11441167 FZRANO
PANW 151556Z AUTO 01006KT 10SM CLR M14/M16 A3004 RMK AO2 SLP191 T11441161 FZRANO
PANW 151456Z AUTO 01008KT 10SM CLR M14/M16 A3007 RMK AO2 SLP200 T11391156 56009 FZRANO
PANW 151356Z AUTO 01005KT 10SM CLR M14/M16 A3007 RMK AO2 SLP202 T11391156 FZRANO
PANW 151256Z AUTO 02007KT 10SM CLR M13/M15 A3009 RMK AO2 SLP206 T11281150 FZRANO
PANW 151156Z AUTO 02004KT 10SM CLR M13/M15 A3010 RMK AO2 SLP209 T11281150 11094 21133 51005 FZRANO
PANW 151056Z AUTO 03006KT 10SM CLR M12/M14 A3009 RMK AO2 SLP208 T11221139 FZRANO
PANW 150956Z AUTO 01006KT 10SM CLR M12/M14 A3010 RMK AO2 SLP211 T11221139 FZRANO
PANW 150856Z AUTO 26005KT 10SM CLR M11/M13 A3008 RMK AO2 SLP205 T11061133 410891150 53004 FZRANO
PANW 150841Z AUTO 23004KT 10SM SCT022 M11/M13 A3008 RMK AO2 FZRANO
PANW 150756Z AUTO 00000KT 10SM OVC024 M10/M13 A3007 RMK AO2 SLP202 T11001128 FZRANO
PANW 150656Z AUTO 05003KT 10SM OVC024 M10/M13 A3005 RMK AO2 SLP196 T11001128 FZRANO
PANW 150616Z AUTO 03005KT 10SM OVC028 M09/M13 A3006 RMK AO2 FZRANO
PANW 150556Z AUTO 36004KT 10SM OVC030 M09/M13 A3007 RMK AO2 SLP200 T10941128 11089 21100 57001 FZRANO
PANW 150456Z AUTO 03005KT 10SM OVC038 M09/M14 A3007 RMK AO2 SLP200 T10941139 FZRANO
PANW 150356Z AUTO 36005KT 10SM BKN046 OVC075 M09/M14 A3007 RMK AO2 SLP201 T10941139 FZRANO
PANW 150256Z AUTO 32004KT 10SM BKN050 OVC060 M09/M13 A3007 RMK AO2 SLP201 T10891133 55002 FZRANO
PANW 150156Z AUTO 04004KT 10SM OVC055 M09/M13 A3005 RMK AO2 SLP194 T10941133 FZRANO
PANW 150056Z AUTO 06004KT 10SM SCT049 SCT070 M10/M14 A3006 RMK AO2 SLP198 T11001139 FZRANO
PANW 142356Z AUTO 02005KT 10SM SCT085 M10/M14 A3008 RMK AO2 SLP203 T11001144 11100 21150 56032 FZRANO